sensor_id;sensor_type;location;lat;lon;timestamp;temperature;humidity
56538;DHT22;42435;53.292;6.000;2022-12-07T00:01:13;6.10;85.10
56538;DHT22;42435;53.292;6.000;2022-12-07T00:03:40;6.10;85.10
56538;DHT22;42435;53.292;6.000;2022-12-07T00:06:08;6.10;85.20
56538;DHT22;42435;53.292;6.000;2022-12-07T00:08:34;6.10;85.20
56538;DHT22;42435;53.292;6.000;2022-12-07T00:11:02;6.10;85.20
56538;DHT22;42435;53.292;6.000;2022-12-07T00:13:29;6.10;85.20
56538;DHT22;42435;53.292;6.000;2022-12-07T00:15:55;6.10;85.20
56538;DHT22;42435;53.292;6.000;2022-12-07T00:18:21;6.10;85.10
56538;DHT22;42435;53.292;6.000;2022-12-07T00:20:49;6.00;85.10
56538;DHT22;42435;53.292;6.000;2022-12-07T00:23:14;6.00;85.10
56538;DHT22;42435;53.292;6.000;2022-12-07T00:25:40;6.00;85.10
56538;DHT22;42435;53.292;6.000;2022-12-07T00:28:19;6.00;84.90
56538;DHT22;42435;53.292;6.000;2022-12-07T00:30:51;5.90;84.80
56538;DHT22;42435;53.292;6.000;2022-12-07T00:33:21;5.90;84.80
56538;DHT22;42435;53.292;6.000;2022-12-07T00:35:55;5.80;84.70
56538;DHT22;42435;53.292;6.000;2022-12-07T00:38:21;5.70;84.70
56538;DHT22;42435;53.292;6.000;2022-12-07T00:40:54;5.70;84.80
56538;DHT22;42435;53.292;6.000;2022-12-07T00:43:20;5.60;85.00
56538;DHT22;42435;53.292;6.000;2022-12-07T00:45:51;5.50;85.00
56538;DHT22;42435;53.292;6.000;2022-12-07T00:48:16;5.50;85.10
56538;DHT22;42435;53.292;6.000;2022-12-07T00:50:42;5.50;85.20
56538;DHT22;42435;53.292;6.000;2022-12-07T00:53:07;5.50;85.30
56538;DHT22;42435;53.292;6.000;2022-12-07T00:55:39;5.60;85.30
56538;DHT22;42435;53.292;6.000;2022-12-07T00:58:06;5.70;85.40
56538;DHT22;42435;53.292;6.000;2022-12-07T01:00:43;5.70;85.50
56538;DHT22;42435;53.292;6.000;2022-12-07T01:03:12;5.80;85.50
56538;DHT22;42435;53.292;6.000;2022-12-07T01:06:00;5.80;85.50
56538;DHT22;42435;53.292;6.000;2022-12-07T01:08:26;5.90;85.40
56538;DHT22;42435;53.292;6.000;2022-12-07T01:11:04;5.90;85.30
56538;DHT22;42435;53.292;6.000;2022-12-07T01:13:38;5.90;85.20
56538;DHT22;42435;53.292;6.000;2022-12-07T01:16:07;5.90;85.10
56538;DHT22;42435;53.292;6.000;2022-12-07T01:18:35;5.90;85.00
56538;DHT22;42435;53.292;6.000;2022-12-07T01:23:28;5.90;84.70
56538;DHT22;42435;53.292;6.000;2022-12-07T01:25:56;5.90;84.70
56538;DHT22;42435;53.292;6.000;2022-12-07T01:28:21;5.80;84.60
56538;DHT22;42435;53.292;6.000;2022-12-07T01:30:58;5.80;84.50
56538;DHT22;42435;53.292;6.000;2022-12-07T01:33:24;5.70;84.40
56538;DHT22;42435;53.292;6.000;2022-12-07T01:35:51;5.70;84.30
56538;DHT22;42435;53.292;6.000;2022-12-07T01:38:19;5.60;84.20
56538;DHT22;42435;53.292;6.000;2022-12-07T01:40:45;5.60;84.20
56538;DHT22;42435;53.292;6.000;2022-12-07T01:43:23;5.50;84.20
56538;DHT22;42435;53.292;6.000;2022-12-07T01:45:52;5.50;84.20
56538;DHT22;42435;53.292;6.000;2022-12-07T01:48:36;5.50;84.20
56538;DHT22;42435;53.292;6.000;2022-12-07T01:51:09;5.50;84.10
56538;DHT22;42435;53.292;6.000;2022-12-07T01:53:38;5.40;84.10
56538;DHT22;42435;53.292;6.000;2022-12-07T01:56:07;5.40;84.10
56538;DHT22;42435;53.292;6.000;2022-12-07T01:58:36;5.40;84.10
56538;DHT22;42435;53.292;6.000;2022-12-07T02:01:03;5.30;84.00
56538;DHT22;42435;53.292;6.000;2022-12-07T02:03:38;5.30;84.00
56538;DHT22;42435;53.292;6.000;2022-12-07T02:06:05;5.30;84.00
56538;DHT22;42435;53.292;6.000;2022-12-07T02:08:32;5.20;84.10
56538;DHT22;42435;53.292;6.000;2022-12-07T02:10:57;5.20;84.20
56538;DHT22;42435;53.292;6.000;2022-12-07T02:13:31;5.10;84.20
56538;DHT22;42435;53.292;6.000;2022-12-07T02:16:25;5.20;84.40
56538;DHT22;42435;53.292;6.000;2022-12-07T02:21:57;5.20;84.40
56538;DHT22;42435;53.292;6.000;2022-12-07T02:24:45;5.20;84.40
56538;DHT22;42435;53.292;6.000;2022-12-07T02:27:20;5.20;84.30
56538;DHT22;42435;53.292;6.000;2022-12-07T02:30:10;5.20;84.40
56538;DHT22;42435;53.292;6.000;2022-12-07T02:40:22;5.20;84.60
56538;DHT22;42435;53.292;6.000;2022-12-07T02:42:57;5.20;84.60
56538;DHT22;42435;53.292;6.000;2022-12-07T02:45:25;5.20;84.70
56538;DHT22;42435;53.292;6.000;2022-12-07T02:47:58;5.20;84.90
56538;DHT22;42435;53.292;6.000;2022-12-07T02:50:24;5.20;85.10
56538;DHT22;42435;53.292;6.000;2022-12-07T02:52:50;5.30;85.20
56538;DHT22;42435;53.292;6.000;2022-12-07T02:55:17;5.40;85.20
56538;DHT22;42435;53.292;6.000;2022-12-07T02:57:56;5.40;85.10
56538;DHT22;42435;53.292;6.000;2022-12-07T03:00:25;5.40;85.10
56538;DHT22;42435;53.292;6.000;2022-12-07T03:03:06;5.40;85.10
56538;DHT22;42435;53.292;6.000;2022-12-07T03:05:52;5.40;85.10
56538;DHT22;42435;53.292;6.000;2022-12-07T03:11:00;5.30;85.10
56538;DHT22;42435;53.292;6.000;2022-12-07T03:14:30;5.30;85.10
56538;DHT22;42435;53.292;6.000;2022-12-07T03:17:06;5.30;85.20
56538;DHT22;42435;53.292;6.000;2022-12-07T03:19:36;5.30;85.10
56538;DHT22;42435;53.292;6.000;2022-12-07T03:22:05;5.30;85.00
56538;DHT22;42435;53.292;6.000;2022-12-07T03:24:57;5.30;85.00
56538;DHT22;42435;53.292;6.000;2022-12-07T03:30:07;5.20;85.00
56538;DHT22;42435;53.292;6.000;2022-12-07T03:32:59;5.20;85.10
56538;DHT22;42435;53.292;6.000;2022-12-07T03:35:33;5.20;85.10
56538;DHT22;42435;53.292;6.000;2022-12-07T03:38:27;5.20;85.10
56538;DHT22;42435;53.292;6.000;2022-12-07T03:41:22;5.20;85.10
56538;DHT22;42435;53.292;6.000;2022-12-07T03:43:49;5.20;85.20
56538;DHT22;42435;53.292;6.000;2022-12-07T03:46:50;5.30;85.20
56538;DHT22;42435;53.292;6.000;2022-12-07T03:49:25;5.30;85.10
56538;DHT22;42435;53.292;6.000;2022-12-07T03:54:53;5.40;84.70
56538;DHT22;42435;53.292;6.000;2022-12-07T03:57:22;5.30;84.50
56538;DHT22;42435;53.292;6.000;2022-12-07T03:59:49;5.30;84.50
56538;DHT22;42435;53.292;6.000;2022-12-07T04:02:16;5.30;84.50
56538;DHT22;42435;53.292;6.000;2022-12-07T04:04:42;5.30;84.60
56538;DHT22;42435;53.292;6.000;2022-12-07T04:07:08;5.30;84.70
56538;DHT22;42435;53.292;6.000;2022-12-07T04:09:34;5.30;84.70
56538;DHT22;42435;53.292;6.000;2022-12-07T04:11:59;5.20;84.80
56538;DHT22;42435;53.292;6.000;2022-12-07T04:14:25;5.20;84.80
56538;DHT22;42435;53.292;6.000;2022-12-07T04:16:53;5.20;84.80
56538;DHT22;42435;53.292;6.000;2022-12-07T04:19:23;5.20;84.70
56538;DHT22;42435;53.292;6.000;2022-12-07T04:21:49;5.10;84.80
56538;DHT22;42435;53.292;6.000;2022-12-07T04:24:15;5.00;84.80
56538;DHT22;42435;53.292;6.000;2022-12-07T04:26:44;5.00;84.80
56538;DHT22;42435;53.292;6.000;2022-12-07T04:29:10;5.00;84.80
56538;DHT22;42435;53.292;6.000;2022-12-07T04:31:37;4.90;84.80
56538;DHT22;42435;53.292;6.000;2022-12-07T04:34:03;4.90;84.80
56538;DHT22;42435;53.292;6.000;2022-12-07T04:36:29;4.80;84.90
56538;DHT22;42435;53.292;6.000;2022-12-07T04:38:55;4.80;84.90
56538;DHT22;42435;53.292;6.000;2022-12-07T04:41:22;4.70;84.90
56538;DHT22;42435;53.292;6.000;2022-12-07T04:43:58;4.70;84.90
56538;DHT22;42435;53.292;6.000;2022-12-07T04:46:29;4.60;84.90
56538;DHT22;42435;53.292;6.000;2022-12-07T04:48:57;4.60;84.90
56538;DHT22;42435;53.292;6.000;2022-12-07T04:51:26;4.50;84.90
56538;DHT22;42435;53.292;6.000;2022-12-07T04:53:52;4.40;84.90
56538;DHT22;42435;53.292;6.000;2022-12-07T04:56:18;4.40;84.90
56538;DHT22;42435;53.292;6.000;2022-12-07T04:58:45;4.30;84.90
56538;DHT22;42435;53.292;6.000;2022-12-07T05:01:12;4.30;85.00
56538;DHT22;42435;53.292;6.000;2022-12-07T05:03:40;4.20;85.00
56538;DHT22;42435;53.292;6.000;2022-12-07T05:06:06;4.20;85.00
56538;DHT22;42435;53.292;6.000;2022-12-07T05:08:35;4.10;85.10
56538;DHT22;42435;53.292;6.000;2022-12-07T05:11:02;4.10;85.30
56538;DHT22;42435;53.292;6.000;2022-12-07T05:13:28;4.10;85.50
56538;DHT22;42435;53.292;6.000;2022-12-07T05:15:53;4.20;85.60
56538;DHT22;42435;53.292;6.000;2022-12-07T05:18:19;4.20;85.90
56538;DHT22;42435;53.292;6.000;2022-12-07T05:20:45;4.30;85.90
56538;DHT22;42435;53.292;6.000;2022-12-07T05:23:13;4.30;86.00
56538;DHT22;42435;53.292;6.000;2022-12-07T05:25:41;4.40;86.00
56538;DHT22;42435;53.292;6.000;2022-12-07T05:28:09;4.40;85.90
56538;DHT22;42435;53.292;6.000;2022-12-07T05:30:37;4.40;85.80
56538;DHT22;42435;53.292;6.000;2022-12-07T05:33:06;4.50;85.80
56538;DHT22;42435;53.292;6.000;2022-12-07T05:35:34;4.50;85.70
56538;DHT22;42435;53.292;6.000;2022-12-07T05:38:06;4.50;85.60
56538;DHT22;42435;53.292;6.000;2022-12-07T05:40:32;4.60;85.60
56538;DHT22;42435;53.292;6.000;2022-12-07T05:43:00;4.60;85.50
56538;DHT22;42435;53.292;6.000;2022-12-07T05:45:26;4.60;85.40
56538;DHT22;42435;53.292;6.000;2022-12-07T05:47:51;4.60;85.30
56538;DHT22;42435;53.292;6.000;2022-12-07T05:50:17;4.60;85.30
56538;DHT22;42435;53.292;6.000;2022-12-07T05:52:45;4.60;85.30
56538;DHT22;42435;53.292;6.000;2022-12-07T05:55:11;4.60;85.40
56538;DHT22;42435;53.292;6.000;2022-12-07T05:57:37;4.70;85.40
56538;DHT22;42435;53.292;6.000;2022-12-07T06:00:03;4.70;85.40
56538;DHT22;42435;53.292;6.000;2022-12-07T06:02:32;4.70;85.40
56538;DHT22;42435;53.292;6.000;2022-12-07T06:05:00;4.70;85.30
56538;DHT22;42435;53.292;6.000;2022-12-07T06:07:30;4.70;85.30
56538;DHT22;42435;53.292;6.000;2022-12-07T06:09:58;4.70;85.20
56538;DHT22;42435;53.292;6.000;2022-12-07T06:12:29;4.80;85.10
56538;DHT22;42435;53.292;6.000;2022-12-07T06:15:04;4.70;85.00
56538;DHT22;42435;53.292;6.000;2022-12-07T06:17:29;4.70;84.90
56538;DHT22;42435;53.292;6.000;2022-12-07T06:19:55;4.70;84.70
56538;DHT22;42435;53.292;6.000;2022-12-07T06:22:21;4.60;84.60
56538;DHT22;42435;53.292;6.000;2022-12-07T06:24:49;4.60;84.60
56538;DHT22;42435;53.292;6.000;2022-12-07T06:27:17;4.50;84.60
56538;DHT22;42435;53.292;6.000;2022-12-07T06:29:43;4.50;84.60
56538;DHT22;42435;53.292;6.000;2022-12-07T06:32:09;4.50;84.70
56538;DHT22;42435;53.292;6.000;2022-12-07T06:34:40;4.50;84.70
56538;DHT22;42435;53.292;6.000;2022-12-07T06:37:09;4.60;84.80
56538;DHT22;42435;53.292;6.000;2022-12-07T06:39:37;4.70;84.90
56538;DHT22;42435;53.292;6.000;2022-12-07T06:42:04;4.70;84.90
56538;DHT22;42435;53.292;6.000;2022-12-07T06:44:32;4.80;84.90
56538;DHT22;42435;53.292;6.000;2022-12-07T06:46:58;4.80;84.90
56538;DHT22;42435;53.292;6.000;2022-12-07T06:49:26;4.90;84.90
56538;DHT22;42435;53.292;6.000;2022-12-07T06:51:52;4.90;84.80
56538;DHT22;42435;53.292;6.000;2022-12-07T06:54:18;4.90;84.80
56538;DHT22;42435;53.292;6.000;2022-12-07T06:56:43;4.80;84.60
56538;DHT22;42435;53.292;6.000;2022-12-07T06:59:09;4.90;84.60
56538;DHT22;42435;53.292;6.000;2022-12-07T07:01:35;4.80;84.50
56538;DHT22;42435;53.292;6.000;2022-12-07T07:04:01;4.80;84.50
56538;DHT22;42435;53.292;6.000;2022-12-07T07:06:27;4.80;84.40
56538;DHT22;42435;53.292;6.000;2022-12-07T07:08:52;4.80;84.30
56538;DHT22;42435;53.292;6.000;2022-12-07T07:11:18;4.70;84.30
56538;DHT22;42435;53.292;6.000;2022-12-07T07:13:45;4.70;84.30
56538;DHT22;42435;53.292;6.000;2022-12-07T07:16:13;4.70;84.30
56538;DHT22;42435;53.292;6.000;2022-12-07T07:18:39;4.70;84.50
56538;DHT22;42435;53.292;6.000;2022-12-07T07:21:04;4.70;84.60
56538;DHT22;42435;53.292;6.000;2022-12-07T07:23:33;4.70;84.70
56538;DHT22;42435;53.292;6.000;2022-12-07T07:25:58;4.70;84.70
56538;DHT22;42435;53.292;6.000;2022-12-07T07:28:24;4.70;84.80
56538;DHT22;42435;53.292;6.000;2022-12-07T07:30:50;4.70;84.80
56538;DHT22;42435;53.292;6.000;2022-12-07T07:33:15;4.70;84.90
56538;DHT22;42435;53.292;6.000;2022-12-07T07:35:41;4.70;84.90
56538;DHT22;42435;53.292;6.000;2022-12-07T07:38:09;4.80;84.80
56538;DHT22;42435;53.292;6.000;2022-12-07T07:40:38;4.80;84.70
56538;DHT22;42435;53.292;6.000;2022-12-07T07:43:06;4.80;84.40
56538;DHT22;42435;53.292;6.000;2022-12-07T07:45:34;4.90;84.30
56538;DHT22;42435;53.292;6.000;2022-12-07T07:47:59;4.80;84.10
56538;DHT22;42435;53.292;6.000;2022-12-07T07:50:25;4.80;83.90
56538;DHT22;42435;53.292;6.000;2022-12-07T07:52:53;4.80;83.80
56538;DHT22;42435;53.292;6.000;2022-12-07T07:55:19;4.80;83.50
56538;DHT22;42435;53.292;6.000;2022-12-07T07:57:45;4.80;83.40
56538;DHT22;42435;53.292;6.000;2022-12-07T08:00:13;4.90;83.20
56538;DHT22;42435;53.292;6.000;2022-12-07T08:02:40;4.90;82.90
56538;DHT22;42435;53.292;6.000;2022-12-07T08:05:06;4.90;82.80
56538;DHT22;42435;53.292;6.000;2022-12-07T08:07:34;4.80;82.70
56538;DHT22;42435;53.292;6.000;2022-12-07T08:10:06;4.80;82.60
56538;DHT22;42435;53.292;6.000;2022-12-07T08:12:36;4.80;82.60
56538;DHT22;42435;53.292;6.000;2022-12-07T08:15:03;4.70;82.60
56538;DHT22;42435;53.292;6.000;2022-12-07T08:17:31;4.70;82.70
56538;DHT22;42435;53.292;6.000;2022-12-07T08:19:58;4.60;82.70
56538;DHT22;42435;53.292;6.000;2022-12-07T08:22:23;4.60;82.90
56538;DHT22;42435;53.292;6.000;2022-12-07T08:24:49;4.60;83.10
56538;DHT22;42435;53.292;6.000;2022-12-07T08:27:14;4.60;83.30
56538;DHT22;42435;53.292;6.000;2022-12-07T08:29:49;4.60;83.30
56538;DHT22;42435;53.292;6.000;2022-12-07T08:32:20;4.70;83.30
56538;DHT22;42435;53.292;6.000;2022-12-07T08:34:48;4.80;83.30
56538;DHT22;42435;53.292;6.000;2022-12-07T08:37:15;4.90;83.30
56538;DHT22;42435;53.292;6.000;2022-12-07T08:39:40;4.90;83.50
56538;DHT22;42435;53.292;6.000;2022-12-07T08:42:09;5.10;83.60
56538;DHT22;42435;53.292;6.000;2022-12-07T08:44:34;5.20;83.60
56538;DHT22;42435;53.292;6.000;2022-12-07T08:47:02;5.20;83.40
56538;DHT22;42435;53.292;6.000;2022-12-07T08:49:36;5.30;83.40
56538;DHT22;42435;53.292;6.000;2022-12-07T08:52:04;5.30;83.20
56538;DHT22;42435;53.292;6.000;2022-12-07T08:54:35;5.30;83.00
56538;DHT22;42435;53.292;6.000;2022-12-07T08:57:02;5.30;82.90
56538;DHT22;42435;53.292;6.000;2022-12-07T08:59:31;5.30;82.90
56538;DHT22;42435;53.292;6.000;2022-12-07T09:01:58;5.30;82.90
56538;DHT22;42435;53.292;6.000;2022-12-07T09:04:24;5.40;82.90
56538;DHT22;42435;53.292;6.000;2022-12-07T09:06:49;5.40;82.90
56538;DHT22;42435;53.292;6.000;2022-12-07T09:09:15;5.40;83.00
56538;DHT22;42435;53.292;6.000;2022-12-07T09:11:41;5.40;82.90
56538;DHT22;42435;53.292;6.000;2022-12-07T09:14:17;5.30;82.90
56538;DHT22;42435;53.292;6.000;2022-12-07T09:16:44;5.30;83.00
56538;DHT22;42435;53.292;6.000;2022-12-07T09:19:09;5.40;83.10
56538;DHT22;42435;53.292;6.000;2022-12-07T09:21:35;5.40;83.10
56538;DHT22;42435;53.292;6.000;2022-12-07T09:24:06;5.50;83.30
56538;DHT22;42435;53.292;6.000;2022-12-07T09:26:31;5.50;83.30
56538;DHT22;42435;53.292;6.000;2022-12-07T09:28:57;5.60;83.30
56538;DHT22;42435;53.292;6.000;2022-12-07T09:31:23;5.70;83.30
56538;DHT22;42435;53.292;6.000;2022-12-07T09:33:56;5.80;83.10
56538;DHT22;42435;53.292;6.000;2022-12-07T09:36:22;5.80;82.80
56538;DHT22;42435;53.292;6.000;2022-12-07T09:38:48;5.80;82.40
56538;DHT22;42435;53.292;6.000;2022-12-07T09:41:23;5.80;82.00
56538;DHT22;42435;53.292;6.000;2022-12-07T09:43:50;5.90;81.80
56538;DHT22;42435;53.292;6.000;2022-12-07T09:46:17;5.90;81.90
56538;DHT22;42435;53.292;6.000;2022-12-07T09:48:44;5.90;82.00
56538;DHT22;42435;53.292;6.000;2022-12-07T09:53:43;6.00;82.10
56538;DHT22;42435;53.292;6.000;2022-12-07T09:56:13;6.00;82.20
56538;DHT22;42435;53.292;6.000;2022-12-07T09:58:43;6.20;82.10
56538;DHT22;42435;53.292;6.000;2022-12-07T10:01:15;6.20;82.00
56538;DHT22;42435;53.292;6.000;2022-12-07T10:03:54;6.30;81.80
56538;DHT22;42435;53.292;6.000;2022-12-07T10:06:23;6.30;81.80
56538;DHT22;42435;53.292;6.000;2022-12-07T10:08:49;6.40;81.70
56538;DHT22;42435;53.292;6.000;2022-12-07T10:11:26;6.40;81.60
56538;DHT22;42435;53.292;6.000;2022-12-07T10:13:52;6.50;81.60
56538;DHT22;42435;53.292;6.000;2022-12-07T10:16:38;6.60;81.80
56538;DHT22;42435;53.292;6.000;2022-12-07T10:19:30;6.70;81.70
56538;DHT22;42435;53.292;6.000;2022-12-07T10:24:29;6.90;81.30
56538;DHT22;42435;53.292;6.000;2022-12-07T10:27:01;6.90;81.10
56538;DHT22;42435;53.292;6.000;2022-12-07T10:29:37;6.90;81.00
56538;DHT22;42435;53.292;6.000;2022-12-07T10:32:31;7.00;81.10
56538;DHT22;42435;53.292;6.000;2022-12-07T10:35:22;6.90;80.80
56538;DHT22;42435;53.292;6.000;2022-12-07T10:37:59;6.90;80.70
56538;DHT22;42435;53.292;6.000;2022-12-07T10:40:36;6.90;80.80
56538;DHT22;42435;53.292;6.000;2022-12-07T10:49:15;6.80;80.80
56538;DHT22;42435;53.292;6.000;2022-12-07T10:52:07;6.70;80.70
56538;DHT22;42435;53.292;6.000;2022-12-07T10:57:51;6.70;80.90
56538;DHT22;42435;53.292;6.000;2022-12-07T11:00:30;6.80;80.90
56538;DHT22;42435;53.292;6.000;2022-12-07T11:03:29;6.80;81.00
56538;DHT22;42435;53.292;6.000;2022-12-07T11:11:33;7.20;80.80
56538;DHT22;42435;53.292;6.000;2022-12-07T11:14:32;7.40;80.80
56538;DHT22;42435;53.292;6.000;2022-12-07T11:26:25;8.00;79.50
56538;DHT22;42435;53.292;6.000;2022-12-07T11:32:40;8.20;79.10
56538;DHT22;42435;53.292;6.000;2022-12-07T11:38:23;8.40;78.80
56538;DHT22;42435;53.292;6.000;2022-12-07T11:40:56;8.40;78.50
56538;DHT22;42435;53.292;6.000;2022-12-07T11:47:05;8.40;78.00
56538;DHT22;42435;53.292;6.000;2022-12-07T11:52:59;8.40;77.60
56538;DHT22;42435;53.292;6.000;2022-12-07T11:55:42;8.20;77.40
56538;DHT22;42435;53.292;6.000;2022-12-07T12:06:36;7.10;77.60
56538;DHT22;42435;53.292;6.000;2022-12-07T12:21:02;6.50;79.50
56538;DHT22;42435;53.292;6.000;2022-12-07T12:24:00;6.50;79.70
56538;DHT22;42435;53.292;6.000;2022-12-07T12:29:39;6.40;80.10
56538;DHT22;42435;53.292;6.000;2022-12-07T12:32:24;6.30;80.30
56538;DHT22;42435;53.292;6.000;2022-12-07T12:35:00;6.30;80.40
56538;DHT22;42435;53.292;6.000;2022-12-07T12:42:54;6.30;80.90
56538;DHT22;42435;53.292;6.000;2022-12-07T12:45:31;6.30;80.90
56538;DHT22;42435;53.292;6.000;2022-12-07T12:48:01;6.40;81.00
56538;DHT22;42435;53.292;6.000;2022-12-07T12:50:28;6.40;81.00
56538;DHT22;42435;53.292;6.000;2022-12-07T12:53:39;6.40;81.00
56538;DHT22;42435;53.292;6.000;2022-12-07T12:56:33;6.40;81.00
56538;DHT22;42435;53.292;6.000;2022-12-07T13:18:40;6.30;81.00
56538;DHT22;42435;53.292;6.000;2022-12-07T13:29:13;6.20;81.00
56538;DHT22;42435;53.292;6.000;2022-12-07T13:34:35;6.20;81.10
56538;DHT22;42435;53.292;6.000;2022-12-07T13:37:26;6.20;81.20
56538;DHT22;42435;53.292;6.000;2022-12-07T13:39:58;6.10;81.30
56538;DHT22;42435;53.292;6.000;2022-12-07T13:42:31;6.00;81.20
56538;DHT22;42435;53.292;6.000;2022-12-07T13:44:59;6.00;81.10
56538;DHT22;42435;53.292;6.000;2022-12-07T13:47:49;6.00;81.20
56538;DHT22;42435;53.292;6.000;2022-12-07T13:50:31;5.90;81.20
56538;DHT22;42435;53.292;6.000;2022-12-07T13:52:59;5.90;81.40
56538;DHT22;42435;53.292;6.000;2022-12-07T13:55:37;5.90;81.40
56538;DHT22;42435;53.292;6.000;2022-12-07T13:58:12;5.90;81.50
56538;DHT22;42435;53.292;6.000;2022-12-07T14:00:39;6.00;81.70
56538;DHT22;42435;53.292;6.000;2022-12-07T14:03:29;5.90;81.20
56538;DHT22;42435;53.292;6.000;2022-12-07T14:06:17;5.90;80.80
56538;DHT22;42435;53.292;6.000;2022-12-07T14:08:46;5.70;80.70
56538;DHT22;42435;53.292;6.000;2022-12-07T14:11:18;5.60;80.70
56538;DHT22;42435;53.292;6.000;2022-12-07T14:13:56;5.50;80.90
56538;DHT22;42435;53.292;6.000;2022-12-07T14:17:01;5.40;81.20
56538;DHT22;42435;53.292;6.000;2022-12-07T14:24:47;5.50;82.10
56538;DHT22;42435;53.292;6.000;2022-12-07T14:27:19;5.40;82.10
56538;DHT22;42435;53.292;6.000;2022-12-07T14:30:00;5.40;82.30
56538;DHT22;42435;53.292;6.000;2022-12-07T14:32:28;5.40;82.40
56538;DHT22;42435;53.292;6.000;2022-12-07T14:35:17;5.40;82.50
56538;DHT22;42435;53.292;6.000;2022-12-07T14:37:47;5.40;82.70
56538;DHT22;42435;53.292;6.000;2022-12-07T14:40:21;5.30;82.70
56538;DHT22;42435;53.292;6.000;2022-12-07T14:42:50;5.30;82.90
56538;DHT22;42435;53.292;6.000;2022-12-07T14:45:20;5.30;83.00
56538;DHT22;42435;53.292;6.000;2022-12-07T14:47:49;5.30;83.10
56538;DHT22;42435;53.292;6.000;2022-12-07T14:50:17;5.30;83.20
56538;DHT22;42435;53.292;6.000;2022-12-07T14:52:46;5.20;83.10
56538;DHT22;42435;53.292;6.000;2022-12-07T14:55:27;5.20;83.10
56538;DHT22;42435;53.292;6.000;2022-12-07T14:57:58;5.30;83.00
56538;DHT22;42435;53.292;6.000;2022-12-07T15:00:28;5.20;82.90
56538;DHT22;42435;53.292;6.000;2022-12-07T15:02:58;5.20;82.90
56538;DHT22;42435;53.292;6.000;2022-12-07T15:05:24;5.30;82.90
56538;DHT22;42435;53.292;6.000;2022-12-07T15:07:51;5.30;83.00
56538;DHT22;42435;53.292;6.000;2022-12-07T15:10:23;5.30;83.10
56538;DHT22;42435;53.292;6.000;2022-12-07T15:12:54;5.30;83.20
56538;DHT22;42435;53.292;6.000;2022-12-07T15:15:20;5.40;83.20
56538;DHT22;42435;53.292;6.000;2022-12-07T15:17:48;5.30;83.20
56538;DHT22;42435;53.292;6.000;2022-12-07T15:20:15;5.40;83.20
56538;DHT22;42435;53.292;6.000;2022-12-07T15:22:42;5.40;83.10
56538;DHT22;42435;53.292;6.000;2022-12-07T15:25:13;5.30;83.00
56538;DHT22;42435;53.292;6.000;2022-12-07T15:27:41;5.30;83.00
56538;DHT22;42435;53.292;6.000;2022-12-07T15:30:25;5.30;82.90
56538;DHT22;42435;53.292;6.000;2022-12-07T15:32:53;5.30;82.70
56538;DHT22;42435;53.292;6.000;2022-12-07T15:35:21;5.30;82.70
56538;DHT22;42435;53.292;6.000;2022-12-07T15:38:19;5.30;82.60
56538;DHT22;42435;53.292;6.000;2022-12-07T15:40:48;5.20;82.50
56538;DHT22;42435;53.292;6.000;2022-12-07T15:43:19;5.20;82.50
56538;DHT22;42435;53.292;6.000;2022-12-07T15:46:04;5.20;82.40
56538;DHT22;42435;53.292;6.000;2022-12-07T15:48:30;5.20;82.50
56538;DHT22;42435;53.292;6.000;2022-12-07T15:51:18;5.10;82.60
56538;DHT22;42435;53.292;6.000;2022-12-07T15:53:46;5.10;82.80
56538;DHT22;42435;53.292;6.000;2022-12-07T15:56:25;5.10;82.80
56538;DHT22;42435;53.292;6.000;2022-12-07T15:58:51;5.10;82.90
56538;DHT22;42435;53.292;6.000;2022-12-07T16:01:26;5.10;83.00
56538;DHT22;42435;53.292;6.000;2022-12-07T16:04:00;5.10;83.10
56538;DHT22;42435;53.292;6.000;2022-12-07T16:06:25;5.10;83.00
56538;DHT22;42435;53.292;6.000;2022-12-07T16:09:00;5.20;82.90
56538;DHT22;42435;53.292;6.000;2022-12-07T16:11:45;5.20;82.80
56538;DHT22;42435;53.292;6.000;2022-12-07T16:14:21;5.10;82.70
56538;DHT22;42435;53.292;6.000;2022-12-07T16:16:47;5.10;82.60
56538;DHT22;42435;53.292;6.000;2022-12-07T16:19:13;5.00;82.60
56538;DHT22;42435;53.292;6.000;2022-12-07T16:21:39;5.00;82.80
56538;DHT22;42435;53.292;6.000;2022-12-07T16:24:05;5.10;83.00
56538;DHT22;42435;53.292;6.000;2022-12-07T16:26:34;5.00;83.10
56538;DHT22;42435;53.292;6.000;2022-12-07T16:29:00;5.10;83.20
56538;DHT22;42435;53.292;6.000;2022-12-07T16:31:27;5.10;83.30
56538;DHT22;42435;53.292;6.000;2022-12-07T16:33:54;5.10;83.40
56538;DHT22;42435;53.292;6.000;2022-12-07T16:36:23;5.10;83.50
56538;DHT22;42435;53.292;6.000;2022-12-07T16:38:59;5.10;83.50
56538;DHT22;42435;53.292;6.000;2022-12-07T16:41:25;5.20;83.70
56538;DHT22;42435;53.292;6.000;2022-12-07T16:43:50;5.10;83.70
56538;DHT22;42435;53.292;6.000;2022-12-07T16:46:16;5.10;83.70
56538;DHT22;42435;53.292;6.000;2022-12-07T16:48:42;5.20;83.70
56538;DHT22;42435;53.292;6.000;2022-12-07T16:51:15;5.20;83.70
56538;DHT22;42435;53.292;6.000;2022-12-07T16:53:41;5.20;83.60
56538;DHT22;42435;53.292;6.000;2022-12-07T16:56:14;5.20;83.60
56538;DHT22;42435;53.292;6.000;2022-12-07T16:58:44;5.10;83.70
56538;DHT22;42435;53.292;6.000;2022-12-07T17:01:18;5.10;83.70
56538;DHT22;42435;53.292;6.000;2022-12-07T17:03:50;5.10;83.80
56538;DHT22;42435;53.292;6.000;2022-12-07T17:06:19;5.00;83.70
56538;DHT22;42435;53.292;6.000;2022-12-07T17:08:49;5.10;83.80
56538;DHT22;42435;53.292;6.000;2022-12-07T17:11:28;5.10;83.90
56538;DHT22;42435;53.292;6.000;2022-12-07T17:13:58;5.00;83.90
56538;DHT22;42435;53.292;6.000;2022-12-07T17:16:42;5.00;84.00
56538;DHT22;42435;53.292;6.000;2022-12-07T17:19:10;5.00;84.00
56538;DHT22;42435;53.292;6.000;2022-12-07T17:21:39;5.00;84.00
56538;DHT22;42435;53.292;6.000;2022-12-07T17:24:09;5.00;83.80
56538;DHT22;42435;53.292;6.000;2022-12-07T17:26:35;5.00;83.80
56538;DHT22;42435;53.292;6.000;2022-12-07T17:29:02;5.10;83.80
56538;DHT22;42435;53.292;6.000;2022-12-07T17:31:28;5.00;83.90
56538;DHT22;42435;53.292;6.000;2022-12-07T17:33:53;5.00;83.90
56538;DHT22;42435;53.292;6.000;2022-12-07T17:36:25;5.00;83.90
56538;DHT22;42435;53.292;6.000;2022-12-07T17:38:52;5.00;83.80
56538;DHT22;42435;53.292;6.000;2022-12-07T17:41:23;5.00;83.80
56538;DHT22;42435;53.292;6.000;2022-12-07T17:44:10;5.00;83.80
56538;DHT22;42435;53.292;6.000;2022-12-07T17:46:36;4.90;83.80
56538;DHT22;42435;53.292;6.000;2022-12-07T17:49:03;4.90;83.90
56538;DHT22;42435;53.292;6.000;2022-12-07T17:51:29;4.90;83.90
56538;DHT22;42435;53.292;6.000;2022-12-07T17:54:14;4.90;83.90
56538;DHT22;42435;53.292;6.000;2022-12-07T17:56:40;4.90;83.90
56538;DHT22;42435;53.292;6.000;2022-12-07T17:59:07;4.80;84.00
56538;DHT22;42435;53.292;6.000;2022-12-07T18:01:34;4.80;84.10
56538;DHT22;42435;53.292;6.000;2022-12-07T18:04:02;4.80;84.10
56538;DHT22;42435;53.292;6.000;2022-12-07T18:06:28;4.80;84.20
56538;DHT22;42435;53.292;6.000;2022-12-07T18:08:58;4.90;84.20
56538;DHT22;42435;53.292;6.000;2022-12-07T18:11:24;4.90;84.20
56538;DHT22;42435;53.292;6.000;2022-12-07T18:13:50;4.90;84.20
56538;DHT22;42435;53.292;6.000;2022-12-07T18:16:22;4.90;84.20
56538;DHT22;42435;53.292;6.000;2022-12-07T18:18:48;4.90;84.20